Time,TemperatureF,DewpointF,PressureIn,WindDirection,WindDirectionDegrees,WindSpeedMPH,WindSpeedGustMPH,Humidity,HourlyPrecipIn,Conditions,Clouds,dailyrainin,SoftwareType,DateUTC
2013-04-12 00:03:00,33.1,30.5,29.81,NW,310,5.2,9.2,90,0.00,,,-99.99,Meteorologica,2013-04-12 05:03:00,
2013-04-12 00:08:00,33.0,30.4,29.81,WNW,302,5.8,6.9,90,0.00,,,-99.99,Meteorologica,2013-04-12 05:08:00,
2013-04-12 00:14:00,33.0,30.5,29.81,NW,306,5.4,8.2,90,0.00,,,-99.99,Meteorologica,2013-04-12 05:14:00,
2013-04-12 00:19:00,32.9,30.4,29.82,WNW,292,3.9,8.6,90,0.00,,,-99.99,Meteorologica,2013-04-12 05:19:00,
2013-04-12 00:24:00,32.9,30.4,29.82,NW,311,5.1,9.1,90,0.00,,,-99.99,Meteorologica,2013-04-12 05:24:00,
2013-04-12 00:29:00,32.7,30.2,29.82,NW,308,6.8,9.9,90,0.00,,,-99.99,Meteorologica,2013-04-12 05:29:00,
2013-04-12 00:34:00,32.8,30.3,29.82,NW,319,6.7,10.0,90,0.00,,,-99.99,Meteorologica,2013-04-12 05:34:00,
2013-04-12 00:39:00,32.9,30.3,29.82,NW,304,4.5,8.9,90,0.00,,,-99.99,Meteorologica,2013-04-12 05:39:00,
2013-04-12 00:44:00,32.9,30.3,29.82,WNW,301,5.4,9.3,90,0.00,,,-99.99,Meteorologica,2013-04-12 05:44:00,
2013-04-12 00:49:00,32.9,30.3,29.82,WNW,302,5.8,10.4,90,0.00,,,-99.99,Meteorologica,2013-04-12 05:49:00,
2013-04-12 00:54:00,33.0,30.3,29.81,NW,308,6.1,9.4,90,0.00,,,-99.99,Meteorologica,2013-04-12 05:54:00,
2013-04-12 00:59:00,33.0,30.3,29.81,NW,309,5.1,10.4,89,0.00,,,-99.99,Meteorologica,2013-04-12 05:59:00,
2013-04-12 01:04:00,32.9,30.3,29.82,NW,315,6.9,8.8,90,0.00,,,-99.99,Meteorologica,2013-04-12 06:04:00,
2013-04-12 01:09:00,32.9,30.3,29.82,NW,306,5.1,9.5,90,0.00,,,-99.99,Meteorologica,2013-04-12 06:09:00,
2013-04-12 01:14:00,32.9,30.3,29.82,NW,311,5.2,9.7,90,0.00,,,-99.99,Meteorologica,2013-04-12 06:14:00,
2013-04-12 01:19:00,32.8,30.3,29.82,WNW,302,7.9,11.7,90,0.00,,,-99.99,Meteorologica,2013-04-12 06:19:00,
2013-04-12 01:24:00,32.7,30.1,29.82,WNW,303,6.1,10.4,90,0.00,,,-99.99,Meteorologica,2013-04-12 06:24:00,
2013-04-12 01:29:00,32.7,30.1,29.83,WNW,301,5.8,8.6,90,0.00,,,-99.99,Meteorologica,2013-04-12 06:29:00,
2013-04-12 01:34:00,32.6,30.0,29.83,WNW,296,7.6,11.3,90,0.00,,,-99.99,Meteorologica,2013-04-12 06:34:00,
2013-04-12 01:39:00,32.6,30.0,29.83,NW,309,6.8,10.1,90,0.00,,,-99.99,Meteorologica,2013-04-12 06:39:00,
2013-04-12 01:44:00,32.7,30.1,29.83,WNW,299,5.1,11.1,90,0.00,,,-99.99,Meteorologica,2013-04-12 06:44:00,
2013-04-12 01:49:00,32.6,29.9,29.83,NW,306,5.6,12.5,90,0.00,,,-99.99,Meteorologica,2013-04-12 06:49:00,
2013-04-12 01:54:00,32.7,30.0,29.83,WNW,295,5.5,9.1,89,0.00,,,-99.99,Meteorologica,2013-04-12 06:54:00,
2013-04-12 01:59:00,32.7,30.0,29.83,WNW,302,4.2,9.5,89,0.00,,,-99.99,Meteorologica,2013-04-12 06:59:00,
2013-04-12 02:04:00,32.6,29.9,29.83,WNW,299,4.6,9.9,89,0.00,,,-99.99,Meteorologica,2013-04-12 07:04:00,
2013-04-12 02:09:00,32.5,29.8,29.83,WNW,300,4.8,6.9,89,0.00,,,-99.99,Meteorologica,2013-04-12 07:09:00,
2013-04-12 02:14:00,32.5,29.8,29.83,WNW,301,4.1,5.6,89,0.00,,,-99.99,Meteorologica,2013-04-12 07:14:00,
2013-04-12 02:19:00,32.3,29.6,29.83,WNW,286,4.9,8.9,89,0.00,,,-99.99,Meteorologica,2013-04-12 07:19:00,
2013-04-12 02:24:00,32.3,29.5,29.83,NW,312,5.3,9.3,89,0.00,,,-99.99,Meteorologica,2013-04-12 07:24:00,
2013-04-12 02:29:00,32.3,29.5,29.83,WNW,301,3.9,6.3,89,0.00,,,-99.99,Meteorologica,2013-04-12 07:29:00,
2013-04-12 02:34:00,32.4,29.7,29.84,West,277,3.8,6.6,89,0.00,,,-99.99,Meteorologica,2013-04-12 07:34:00,
2013-04-12 02:39:00,32.3,29.6,29.83,NW,305,4.5,9.3,89,0.00,,,-99.99,Meteorologica,2013-04-12 07:39:00,
2013-04-12 02:44:00,32.2,29.4,29.83,WNW,301,4.6,9.0,89,0.00,,,-99.99,Meteorologica,2013-04-12 07:44:00,
2013-04-12 02:49:00,32.0,29.3,29.83,NW,305,4.4,9.5,89,0.00,,,-99.99,Meteorologica,2013-04-12 07:49:00,
2013-04-12 02:54:00,32.0,29.4,29.83,NW,314,5.2,8.2,90,0.00,,,-99.99,Meteorologica,2013-04-12 07:54:00,
2013-04-12 02:59:00,32.0,29.4,29.83,NW,310,4.6,6.6,90,0.00,,,-99.99,Meteorologica,2013-04-12 07:59:00,
2013-04-12 03:04:00,31.9,29.4,29.83,NW,307,5.1,8.6,90,0.00,,,-99.99,Meteorologica,2013-04-12 08:04:00,
2013-04-12 03:09:00,31.8,29.3,29.83,WNW,293,5.8,9.4,90,0.00,,,-99.99,Meteorologica,2013-04-12 08:09:00,
2013-04-12 03:14:00,31.8,29.3,29.83,NW,312,6.5,8.8,90,0.00,,,-99.99,Meteorologica,2013-04-12 08:14:00,
2013-04-12 03:20:00,31.8,29.3,29.83,WNW,302,4.5,5.8,90,0.00,,,-99.99,Meteorologica,2013-04-12 08:20:00,
2013-04-12 03:25:00,31.7,29.2,29.83,NW,310,6.1,8.0,90,0.00,,,-99.99,Meteorologica,2013-04-12 08:25:00,
2013-04-12 03:30:00,31.9,29.3,29.83,NW,306,4.4,6.4,90,0.00,,,-99.99,Meteorologica,2013-04-12 08:30:00,
2013-04-12 03:35:00,31.9,29.3,29.84,NW,315,5.3,7.9,90,0.00,,,-99.99,Meteorologica,2013-04-12 08:35:00,
2013-04-12 03:40:00,31.9,29.2,29.84,WNW,292,4.5,6.3,90,0.00,,,-99.99,Meteorologica,2013-04-12 08:40:00,
2013-04-12 03:45:00,31.8,29.3,29.84,NW,307,4.3,6.2,90,0.00,,,-99.99,Meteorologica,2013-04-12 08:45:00,
2013-04-12 03:50:00,31.7,29.1,29.84,NW,311,4.9,5.1,90,0.00,,,-99.99,Meteorologica,2013-04-12 08:50:00,
2013-04-12 03:55:00,31.6,29.0,29.84,NW,310,3.3,4.4,90,0.00,,,-99.99,Meteorologica,2013-04-12 08:55:00,
2013-04-12 04:00:00,31.7,29.1,29.84,NW,314,3.6,4.9,90,0.00,,,-99.99,Meteorologica,2013-04-12 09:00:00,
2013-04-12 04:05:00,31.4,28.9,29.84,WNW,303,5.7,6.0,90,0.00,,,-99.99,Meteorologica,2013-04-12 09:05:00,
2013-04-12 04:10:00,31.3,28.9,29.85,WNW,299,5.4,8.8,90,0.00,,,-99.99,Meteorologica,2013-04-12 09:10:00,
2013-04-12 04:15:00,31.2,28.8,29.85,NW,318,4.6,6.1,90,0.00,,,-99.99,Meteorologica,2013-04-12 09:15:00,
2013-04-12 04:21:00,31.2,28.8,29.84,WNW,298,4.4,6.3,90,0.00,,,-99.99,Meteorologica,2013-04-12 09:21:00,
2013-04-12 04:26:00,31.2,28.8,29.84,WNW,303,3.6,4.7,90,0.00,,,-99.99,Meteorologica,2013-04-12 09:26:00,
2013-04-12 04:31:00,31.2,28.7,29.84,NNW,337,2.4,4.8,90,0.00,,,-99.99,Meteorologica,2013-04-12 09:31:00,
2013-04-12 04:36:00,31.3,28.8,29.84,WNW,299,2.4,4.2,90,0.00,,,-99.99,Meteorologica,2013-04-12 09:36:00,
2013-04-12 04:41:00,31.3,28.8,29.85,NW,309,2.4,5.6,90,0.00,,,-99.99,Meteorologica,2013-04-12 09:41:00,
2013-04-12 04:46:00,31.4,28.9,29.85,WSW,256,0.0,0.0,90,0.00,,,-99.99,Meteorologica,2013-04-12 09:46:00,
2013-04-12 04:51:00,31.4,29.0,29.85,WNW,286,3.8,5.1,90,0.00,,,-99.99,Meteorologica,2013-04-12 09:51:00,
2013-04-12 04:56:00,31.4,29.0,29.85,NW,319,4.4,5.6,91,0.00,,,-99.99,Meteorologica,2013-04-12 09:56:00,
2013-04-12 05:01:00,31.4,29.0,29.85,NW,308,5.1,6.7,91,0.00,,,-99.99,Meteorologica,2013-04-12 10:01:00,
2013-04-12 05:06:00,31.5,29.1,29.85,WNW,291,3.3,6.7,91,0.00,,,-99.99,Meteorologica,2013-04-12 10:06:00,
2013-04-12 05:11:00,31.5,29.1,29.85,NW,312,4.8,6.1,90,0.00,,,-99.99,Meteorologica,2013-04-12 10:11:00,
2013-04-12 05:16:00,31.7,29.1,29.85,NW,308,5.8,9.1,90,0.00,,,-99.99,Meteorologica,2013-04-12 10:16:00,
2013-04-12 05:21:00,31.7,29.1,29.85,NW,313,4.7,7.3,90,0.00,,,-99.99,Meteorologica,2013-04-12 10:21:00,
2013-04-12 05:26:00,31.8,29.1,29.86,WNW,296,6.0,8.0,89,0.00,,,-99.99,Meteorologica,2013-04-12 10:26:00,
2013-04-12 05:31:00,31.8,29.0,29.86,NW,316,4.7,6.3,89,0.00,,,-99.99,Meteorologica,2013-04-12 10:31:00,
2013-04-12 05:36:00,31.8,28.9,29.86,WNW,300,5.8,7.8,89,0.00,,,-99.99,Meteorologica,2013-04-12 10:36:00,
2013-04-12 05:41:00,31.7,28.6,29.86,NW,309,7.5,11.8,88,0.00,,,-99.99,Meteorologica,2013-04-12 10:41:00,
2013-04-12 05:47:00,31.8,28.5,29.86,NNE,30,5.6,7.9,87,0.00,,,-99.99,Meteorologica,2013-04-12 10:47:00,
2013-04-12 05:52:00,31.8,28.6,29.86,NW,317,5.4,7.1,87,0.00,,,-99.99,Meteorologica,2013-04-12 10:52:00,
2013-04-12 05:57:00,31.7,28.7,29.86,WNW,288,4.8,7.4,88,0.00,,,-99.99,Meteorologica,2013-04-12 10:57:00,
2013-04-12 06:02:00,31.6,28.7,29.86,WNW,303,4.8,7.1,89,0.00,,,-99.99,Meteorologica,2013-04-12 11:02:00,
2013-04-12 06:08:00,31.5,28.8,29.86,NW,309,4.7,7.8,89,0.00,,,-99.99,Meteorologica,2013-04-12 11:08:00,
2013-04-12 06:13:00,31.4,28.7,29.87,WNW,296,4.8,9.4,89,0.00,,,-99.99,Meteorologica,2013-04-12 11:13:00,
2013-04-12 06:18:00,31.5,28.9,29.87,WNW,295,3.3,8.2,90,0.00,,,-99.99,Meteorologica,2013-04-12 11:18:00,
2013-04-12 06:23:00,31.5,28.8,29.87,NW,305,5.4,6.9,89,0.00,,,-99.99,Meteorologica,2013-04-12 11:23:00,
2013-04-12 06:28:00,31.5,28.8,29.87,NW,308,5.4,7.3,89,0.00,,,-99.99,Meteorologica,2013-04-12 11:28:00,
2013-04-12 06:33:00,31.5,28.9,29.87,WNW,303,4.5,8.0,90,0.00,,,-99.99,Meteorologica,2013-04-12 11:33:00,
2013-04-12 06:38:00,31.5,28.7,29.88,WNW,303,5.6,9.6,89,0.00,,,-99.99,Meteorologica,2013-04-12 11:38:00,
2013-04-12 06:44:00,31.6,28.6,29.88,WNW,293,5.8,8.4,88,0.00,,,-99.99,Meteorologica,2013-04-12 11:44:00,
2013-04-12 06:49:00,31.5,28.5,29.88,West,275,6.8,12.7,88,0.00,,,-99.99,Meteorologica,2013-04-12 11:49:00,
2013-04-12 06:54:00,31.7,28.7,29.89,NW,306,6.2,12.4,88,0.00,,,-99.99,Meteorologica,2013-04-12 11:54:00,
2013-04-12 06:59:00,31.5,28.5,29.90,NW,316,5.5,13.8,88,0.00,,,-99.99,Meteorologica,2013-04-12 11:59:00,
2013-04-12 07:04:00,31.8,28.8,29.89,NW,318,4.3,10.5,88,0.00,,,-99.99,Meteorologica,2013-04-12 12:04:00,
2013-04-12 07:09:00,31.6,28.6,29.90,NW,306,5.4,11.9,88,0.00,,,-99.99,Meteorologica,2013-04-12 12:09:00,
2013-04-12 07:15:00,31.8,28.6,29.90,WNW,296,6.6,9.9,88,0.00,,,-99.99,Meteorologica,2013-04-12 12:15:00,
2013-04-12 07:20:00,31.8,28.6,29.90,NW,324,4.2,5.2,87,0.00,,,-99.99,Meteorologica,2013-04-12 12:20:00,
2013-04-12 07:25:00,31.8,28.6,29.89,NNW,335,5.6,6.8,87,0.00,,,-99.99,Meteorologica,2013-04-12 12:25:00,
2013-04-12 07:30:00,31.5,28.4,29.91,NW,315,5.0,6.2,88,0.00,,,-99.99,Meteorologica,2013-04-12 12:30:00,
2013-04-12 07:35:00,31.5,28.5,29.91,North,354,4.8,7.0,88,0.00,,,-99.99,Meteorologica,2013-04-12 12:35:00,
2013-04-12 07:40:00,31.5,28.3,29.91,NNW,334,5.2,6.6,88,0.00,,,-99.99,Meteorologica,2013-04-12 12:40:00,
2013-04-12 07:46:00,31.7,28.4,29.91,NW,324,5.7,7.8,87,0.00,,,-99.99,Meteorologica,2013-04-12 12:46:00,
2013-04-12 07:51:00,31.9,28.7,29.92,NNW,335,4.8,7.4,88,0.00,,,-99.99,Meteorologica,2013-04-12 12:51:00,
2013-04-12 07:56:00,32.0,28.6,29.92,WNW,297,5.1,9.9,87,0.00,,,-99.99,Meteorologica,2013-04-12 12:56:00,
2013-04-12 08:01:00,32.1,28.7,29.93,WNW,302,3.7,7.9,87,0.00,,,-99.99,Meteorologica,2013-04-12 13:01:00,
2013-04-12 08:06:00,32.2,28.6,29.93,NW,311,6.6,10.7,86,0.00,,,-99.99,Meteorologica,2013-04-12 13:06:00,
2013-04-12 08:11:00,32.6,29.1,29.93,WNW,300,6.4,9.5,86,0.00,,,-99.99,Meteorologica,2013-04-12 13:11:00,
2013-04-12 08:16:00,32.9,29.4,29.93,WNW,290,4.3,7.8,87,0.00,,,-99.99,Meteorologica,2013-04-12 13:16:00,
2013-04-12 08:21:00,32.8,28.9,29.93,WNW,296,5.2,8.9,85,0.00,,,-99.99,Meteorologica,2013-04-12 13:21:00,
2013-04-12 08:26:00,32.7,29.0,29.93,WNW,295,7.6,11.7,86,0.00,,,-99.99,Meteorologica,2013-04-12 13:26:00,
2013-04-12 08:31:00,32.7,28.9,29.93,NW,307,5.3,10.4,86,0.00,,,-99.99,Meteorologica,2013-04-12 13:31:00,
2013-04-12 08:37:00,33.0,29.2,29.93,NW,307,5.4,8.8,85,0.00,,,-99.99,Meteorologica,2013-04-12 13:37:00,
2013-04-12 08:43:00,33.1,29.2,29.93,NW,309,4.9,8.0,85,0.00,,,-99.99,Meteorologica,2013-04-12 13:43:00,
2013-04-12 08:48:00,32.9,29.0,29.93,NNW,338,4.6,11.0,85,0.00,,,-99.99,Meteorologica,2013-04-12 13:48:00,
2013-04-12 08:53:00,33.1,29.3,29.93,NW,309,4.9,8.5,85,0.00,,,-99.99,Meteorologica,2013-04-12 13:53:00,
2013-04-12 08:58:00,33.7,29.6,29.94,NW,304,6.6,12.5,84,0.00,,,-99.99,Meteorologica,2013-04-12 13:58:00,
2013-04-12 09:03:00,34.1,29.6,29.95,WNW,282,7.0,10.2,83,0.00,,,-99.99,Meteorologica,2013-04-12 14:03:00,
2013-04-12 09:08:00,34.2,30.1,29.94,NNW,343,2.1,8.2,84,0.00,,,-99.99,Meteorologica,2013-04-12 14:08:00,
2013-04-12 09:13:00,34.4,29.6,29.94,West,280,4.5,11.1,82,0.00,,,-99.99,Meteorologica,2013-04-12 14:13:00,
2013-04-12 09:19:00,34.8,30.3,29.94,NNW,333,5.1,10.6,83,0.00,,,-99.99,Meteorologica,2013-04-12 14:19:00,
2013-04-12 09:24:00,35.4,30.4,29.94,NNW,327,5.9,12.2,81,0.00,,,-99.99,Meteorologica,2013-04-12 14:24:00,
2013-04-12 09:30:00,35.7,30.4,29.94,NW,312,2.9,6.1,81,0.00,,,-99.99,Meteorologica,2013-04-12 14:30:00,
2013-04-12 09:35:00,35.8,30.4,29.94,SW,221,5.5,9.5,80,0.00,,,-99.99,Meteorologica,2013-04-12 14:35:00,
2013-04-12 09:40:00,35.7,30.6,29.94,WNW,303,7.4,9.7,81,0.00,,,-99.99,Meteorologica,2013-04-12 14:40:00,
2013-04-12 09:45:00,36.3,30.9,29.94,NW,313,7.5,8.1,80,0.00,,,-99.99,Meteorologica,2013-04-12 14:45:00,
2013-04-12 09:50:00,36.5,31.0,29.93,NW,306,6.1,6.6,80,0.00,,,-99.99,Meteorologica,2013-04-12 14:50:00,
2013-04-12 09:55:00,36.8,31.0,29.94,WNW,294,6.1,7.4,79,0.00,,,-99.99,Meteorologica,2013-04-12 14:55:00,
2013-04-12 10:00:00,36.9,31.1,29.94,WNW,299,7.6,9.5,79,0.00,,,-99.99,Meteorologica,2013-04-12 15:00:00,
2013-04-12 10:05:00,37.2,31.8,29.94,NNW,344,3.7,5.4,80,0.00,,,-99.99,Meteorologica,2013-04-12 15:05:00,
2013-04-12 10:10:00,37.8,31.7,29.94,NNW,348,4.7,4.9,78,0.00,,,-99.99,Meteorologica,2013-04-12 15:10:00,
2013-04-12 10:15:00,38.1,32.2,29.94,NW,312,5.1,6.9,78,0.00,,,-99.99,Meteorologica,2013-04-12 15:15:00,
2013-04-12 10:20:00,38.1,31.3,29.94,WNW,298,6.2,8.6,76,0.00,,,-99.99,Meteorologica,2013-04-12 15:20:00,
2013-04-12 10:25:00,38.5,32.4,29.94,NNW,339,4.7,6.7,78,0.00,,,-99.99,Meteorologica,2013-04-12 15:25:00,
2013-04-12 10:30:00,38.4,31.8,29.95,WNW,285,6.8,14.4,76,0.00,,,-99.99,Meteorologica,2013-04-12 15:30:00,
2013-04-12 10:35:00,38.8,32.2,29.95,NW,306,4.1,6.4,76,0.00,,,-99.99,Meteorologica,2013-04-12 15:35:00,
2013-04-12 10:40:00,39.6,33.1,29.95,NNW,327,5.3,8.1,77,0.00,,,-99.99,Meteorologica,2013-04-12 15:40:00,
2013-04-12 10:45:00,40.2,32.2,29.95,NNW,338,4.9,6.8,74,0.00,,,-99.99,Meteorologica,2013-04-12 15:45:00,
2013-04-12 10:50:00,40.7,32.3,29.95,WSW,239,2.4,0.0,71,0.00,,,-99.99,Meteorologica,2013-04-12 15:50:00,
2013-04-12 10:55:00,41.3,34.7,29.95,NNW,345,3.3,5.6,77,0.00,,,-99.99,Meteorologica,2013-04-12 15:55:00,
2013-04-12 11:00:00,41.5,32.6,29.96,NW,311,8.1,10.3,70,0.00,,,-99.99,Meteorologica,2013-04-12 16:00:00,
2013-04-12 11:05:00,41.3,32.3,29.95,NNW,345,7.1,9.9,70,0.00,,,-99.99,Meteorologica,2013-04-12 16:05:00,
2013-04-12 11:10:00,41.8,32.5,29.95,NNW,347,6.2,8.2,69,0.00,,,-99.99,Meteorologica,2013-04-12 16:10:00,
2013-04-12 11:15:00,41.7,32.6,29.95,WNW,290,4.2,4.8,69,0.00,,,-99.99,Meteorologica,2013-04-12 16:15:00,
2013-04-12 11:20:00,41.6,32.7,29.95,WNW,282,6.2,10.1,70,0.00,,,-99.99,Meteorologica,2013-04-12 16:20:00,
2013-04-12 11:25:00,41.2,32.3,29.96,NW,326,6.1,6.7,70,0.00,,,-99.99,Meteorologica,2013-04-12 16:25:00,
2013-04-12 11:30:00,41.9,33.2,29.96,NW,315,3.8,7.9,71,0.00,,,-99.99,Meteorologica,2013-04-12 16:30:00,
2013-04-12 11:36:00,43.1,32.8,29.96,SW,228,6.9,12.6,66,0.00,,,-99.99,Meteorologica,2013-04-12 16:36:00,
2013-04-12 11:41:00,43.2,32.5,29.96,NW,310,7.1,13.2,65,0.00,,,-99.99,Meteorologica,2013-04-12 16:41:00,
2013-04-12 11:46:00,43.1,33.4,29.96,NW,316,5.5,9.5,68,0.00,,,-99.99,Meteorologica,2013-04-12 16:46:00,
2013-04-12 11:51:00,43.2,32.9,29.96,NW,311,8.2,13.9,66,0.00,,,-99.99,Meteorologica,2013-04-12 16:51:00,
2013-04-12 11:56:00,43.5,33.4,29.96,NW,305,8.8,14.5,67,0.00,,,-99.99,Meteorologica,2013-04-12 16:56:00,
2013-04-12 12:01:00,43.6,33.7,29.96,NNW,337,5.2,9.8,67,0.00,,,-99.99,Meteorologica,2013-04-12 17:01:00,
2013-04-12 12:06:00,44.4,33.0,29.96,NW,315,7.0,10.4,63,0.00,,,-99.99,Meteorologica,2013-04-12 17:06:00,
2013-04-12 12:11:00,45.0,34.1,29.96,NW,314,7.3,12.4,65,0.00,,,-99.99,Meteorologica,2013-04-12 17:11:00,
2013-04-12 12:16:00,44.3,33.2,29.96,NNW,346,8.1,14.5,64,0.00,,,-99.99,Meteorologica,2013-04-12 17:16:00,
2013-04-12 12:21:00,45.3,34.4,29.96,North,5,6.3,10.0,65,0.00,,,-99.99,Meteorologica,2013-04-12 17:21:00,
2013-04-12 12:26:00,45.9,34.5,29.96,SE,127,6.8,10.9,64,0.00,,,-99.99,Meteorologica,2013-04-12 17:26:00,
2013-04-12 12:31:00,45.8,34.4,29.96,WNW,294,3.6,5.2,64,0.00,,,-99.99,Meteorologica,2013-04-12 17:31:00,
2013-04-12 12:36:00,45.9,35.2,29.96,WNW,299,4.6,8.1,65,0.00,,,-99.99,Meteorologica,2013-04-12 17:36:00,
2013-04-12 12:42:00,46.3,34.6,29.96,NNW,338,8.0,11.4,63,0.00,,,-99.99,Meteorologica,2013-04-12 17:42:00,
2013-04-12 12:48:00,46.8,34.1,29.96,NNE,22,6.4,16.0,60,0.00,,,-99.99,Meteorologica,2013-04-12 17:48:00,
2013-04-12 12:53:00,47.1,35.6,29.96,NW,322,8.8,11.9,64,0.00,,,-99.99,Meteorologica,2013-04-12 17:53:00,
2013-04-12 12:58:00,47.0,34.2,29.96,North,359,6.5,9.9,60,0.00,,,-99.99,Meteorologica,2013-04-12 17:58:00,
2013-04-12 13:03:00,46.7,34.3,29.96,WNW,298,8.0,13.9,62,0.00,,,-99.99,Meteorologica,2013-04-12 18:03:00,
2013-04-12 13:09:00,46.8,34.8,29.95,NNW,330,5.8,12.7,62,0.00,,,-99.99,Meteorologica,2013-04-12 18:09:00,
2013-04-12 13:15:00,47.4,35.7,29.95,NNW,347,4.9,7.6,63,0.00,,,-99.99,Meteorologica,2013-04-12 18:15:00,
2013-04-12 13:20:00,48.0,34.5,29.95,NW,314,6.0,7.0,59,0.00,,,-99.99,Meteorologica,2013-04-12 18:20:00,
2013-04-12 13:25:00,48.2,35.5,29.95,SW,233,5.4,6.6,61,0.00,,,-99.99,Meteorologica,2013-04-12 18:25:00,
2013-04-12 13:30:00,47.8,35.6,29.96,NW,324,7.2,11.8,62,0.00,,,-99.99,Meteorologica,2013-04-12 18:30:00,
2013-04-12 14:26:00,49.1,35.9,29.96,WSW,239,7.9,11.5,60,0.00,,,-99.99,Meteorologica,2013-04-12 19:26:00,
2013-04-12 14:27:00,49.1,36.5,29.96,NW,317,5.4,11.5,61,0.00,,,-99.99,Meteorologica,2013-04-12 19:27:00,
2013-04-12 14:32:00,49.6,36.0,29.96,WNW,297,7.8,17.4,59,0.00,,,-99.99,Meteorologica,2013-04-12 19:32:00,
2013-04-12 14:33:00,49.8,35.6,29.96,NW,312,6.1,17.4,57,0.00,,,-99.99,Meteorologica,2013-04-12 19:33:00,
2013-04-12 14:35:00,50.1,35.8,29.96,WNW,298,5.5,7.9,57,0.00,,,-99.99,Meteorologica,2013-04-12 19:35:00,
2013-04-12 14:40:00,49.7,34.6,29.97,NW,309,7.7,13.5,55,0.00,,,-99.99,Meteorologica,2013-04-12 19:40:00,
2013-04-12 14:45:00,49.3,35.5,29.96,WNW,291,6.9,10.3,58,0.00,,,-99.99,Meteorologica,2013-04-12 19:45:00,
2013-04-12 14:50:00,49.9,36.1,29.96,WNW,287,7.7,11.6,58,0.00,,,-99.99,Meteorologica,2013-04-12 19:50:00,
2013-04-12 14:55:00,50.7,37.0,29.97,NW,308,7.2,8.1,59,0.00,,,-99.99,Meteorologica,2013-04-12 19:55:00,
2013-04-12 15:00:00,51.6,36.8,29.97,WNW,303,8.6,15.1,56,0.00,,,-99.99,Meteorologica,2013-04-12 20:00:00,
2013-04-12 15:05:00,50.5,36.7,29.98,NNW,347,4.9,8.7,58,0.00,,,-99.99,Meteorologica,2013-04-12 20:05:00,
2013-04-12 15:10:00,50.4,35.3,29.97,WNW,295,8.5,10.7,55,0.00,,,-99.99,Meteorologica,2013-04-12 20:10:00,
2013-04-12 15:15:00,50.4,34.7,29.98,NNW,337,11.6,16.1,54,0.00,,,-99.99,Meteorologica,2013-04-12 20:15:00,
2013-04-12 15:20:00,50.3,35.3,29.98,WNW,282,2.5,0.0,56,0.00,,,-99.99,Meteorologica,2013-04-12 20:20:00,
2013-04-12 15:25:00,51.2,38.0,29.97,West,274,4.5,8.1,60,0.00,,,-99.99,Meteorologica,2013-04-12 20:25:00,
2013-04-12 15:30:00,51.1,36.4,29.97,WNW,302,7.8,13.8,56,0.00,,,-99.99,Meteorologica,2013-04-12 20:30:00,
2013-04-12 15:35:00,50.8,35.9,29.96,NW,312,6.1,7.0,56,0.00,,,-99.99,Meteorologica,2013-04-12 20:35:00,
2013-04-12 15:40:00,51.3,37.7,29.96,WNW,295,0.3,0.0,59,0.00,,,-99.99,Meteorologica,2013-04-12 20:40:00,
2013-04-12 15:45:00,51.6,37.0,29.96,NW,309,6.8,10.2,57,0.00,,,-99.99,Meteorologica,2013-04-12 20:45:00,
2013-04-12 15:50:00,51.1,35.6,29.96,West,271,5.6,11.1,56,0.00,,,-99.99,Meteorologica,2013-04-12 20:50:00,
2013-04-12 15:55:00,50.8,35.5,29.97,NNW,343,6.4,9.5,55,0.00,,,-99.99,Meteorologica,2013-04-12 20:55:00,
2013-04-12 16:00:00,50.5,36.2,29.96,NW,305,5.0,10.0,57,0.00,,,-99.99,Meteorologica,2013-04-12 21:00:00,
2013-04-12 16:05:00,50.0,35.9,29.96,NNW,337,2.1,5.6,58,0.00,,,-99.99,Meteorologica,2013-04-12 21:05:00,
2013-04-12 16:10:00,50.3,35.9,29.96,NW,325,4.5,5.6,57,0.00,,,-99.99,Meteorologica,2013-04-12 21:10:00,
2013-04-12 16:15:00,50.5,34.9,29.96,NW,315,6.4,8.4,54,0.00,,,-99.99,Meteorologica,2013-04-12 21:15:00,
2013-04-12 16:20:00,50.4,36.2,29.96,SW,225,3.9,6.2,57,0.00,,,-99.99,Meteorologica,2013-04-12 21:20:00,
2013-04-12 16:25:00,51.2,36.5,29.95,NNW,330,2.0,3.4,56,0.00,,,-99.99,Meteorologica,2013-04-12 21:25:00,
2013-04-12 16:30:00,52.1,37.4,29.95,NW,311,7.3,9.9,57,0.00,,,-99.99,Meteorologica,2013-04-12 21:30:00,
2013-04-12 16:35:00,52.1,36.2,29.95,NW,305,5.5,9.1,54,0.00,,,-99.99,Meteorologica,2013-04-12 21:35:00,
2013-04-12 16:40:00,51.8,36.1,29.95,WNW,303,6.9,7.5,54,0.00,,,-99.99,Meteorologica,2013-04-12 21:40:00,
2013-04-12 16:45:00,51.4,36.6,29.96,NNW,343,4.3,6.3,56,0.00,,,-99.99,Meteorologica,2013-04-12 21:45:00,
2013-04-12 16:50:00,51.2,36.2,29.95,NNW,336,2.0,0.0,56,0.00,,,-99.99,Meteorologica,2013-04-12 21:50:00,
2013-04-12 16:55:00,51.4,37.1,29.95,NW,319,0.2,2.7,57,0.00,,,-99.99,Meteorologica,2013-04-12 21:55:00,
2013-04-12 17:00:00,51.2,35.1,29.96,NW,316,5.3,5.8,56,0.00,,,-99.99,Meteorologica,2013-04-12 22:00:00,
2013-04-12 17:05:00,52.0,37.2,29.95,SE,127,3.2,8.5,56,0.00,,,-99.99,Meteorologica,2013-04-12 22:05:00,
2013-04-12 17:10:00,52.4,37.6,29.95,WSW,237,2.2,7.8,55,0.00,,,-99.99,Meteorologica,2013-04-12 22:10:00,
2013-04-12 17:15:00,52.0,36.0,29.95,WSW,254,6.9,10.4,54,0.00,,,-99.99,Meteorologica,2013-04-12 22:15:00,
2013-04-12 17:20:00,51.7,36.0,29.96,NNW,333,5.8,8.7,54,0.00,,,-99.99,Meteorologica,2013-04-12 22:20:00,
2013-04-12 17:25:00,51.7,35.8,29.95,NW,311,3.1,7.4,53,0.00,,,-99.99,Meteorologica,2013-04-12 22:25:00,
2013-04-12 17:30:00,51.7,35.9,29.96,WNW,297,2.9,5.0,54,0.00,,,-99.99,Meteorologica,2013-04-12 22:30:00,
2013-04-12 17:35:00,51.5,35.6,29.96,NNW,341,4.4,6.5,54,0.00,,,-99.99,Meteorologica,2013-04-12 22:35:00,
2013-04-12 17:41:00,51.5,36.1,29.96,North,355,6.0,10.7,55,0.00,,,-99.99,Meteorologica,2013-04-12 22:41:00,
2013-04-12 17:46:00,52.1,37.2,29.96,WNW,297,3.0,6.9,56,0.00,,,-99.99,Meteorologica,2013-04-12 22:46:00,
2013-04-12 17:51:00,52.3,37.1,29.96,North,353,3.2,8.2,56,0.00,,,-99.99,Meteorologica,2013-04-12 22:51:00,
2013-04-12 17:56:00,52.0,37.2,29.96,NNE,15,5.3,8.2,56,0.00,,,-99.99,Meteorologica,2013-04-12 22:56:00,
2013-04-12 18:01:00,52.1,37.1,29.96,NNW,327,0.0,4.5,56,0.00,,,-99.99,Meteorologica,2013-04-12 23:01:00,
2013-04-12 18:06:00,52.1,36.0,29.96,NW,314,4.7,6.4,54,0.00,,,-99.99,Meteorologica,2013-04-12 23:06:00,
2013-04-12 18:11:00,51.2,35.9,29.96,North,359,6.0,10.2,55,0.00,,,-99.99,Meteorologica,2013-04-12 23:11:00,
2013-04-12 18:16:00,51.2,36.6,29.97,NW,321,5.2,8.7,57,0.00,,,-99.99,Meteorologica,2013-04-12 23:16:00,
2013-04-12 18:21:00,51.1,36.5,29.97,NNW,343,0.0,0.0,57,0.00,,,-99.99,Meteorologica,2013-04-12 23:21:00,
2013-04-12 18:26:00,50.9,36.5,29.98,ESE,119,2.6,10.8,57,0.00,,,-99.99,Meteorologica,2013-04-12 23:26:00,
2013-04-12 18:31:00,50.9,36.6,29.98,NNW,341,7.3,9.9,57,0.00,,,-99.99,Meteorologica,2013-04-12 23:31:00,
2013-04-12 18:36:00,50.4,37.0,29.99,ESE,114,0.4,4.7,60,0.00,,,-99.99,Meteorologica,2013-04-12 23:36:00,
2013-04-12 18:41:00,50.0,36.2,29.98,NW,306,0.8,4.2,58,0.00,,,-99.99,Meteorologica,2013-04-12 23:41:00,
2013-04-12 18:46:00,50.4,36.7,29.99,NNW,328,2.9,8.7,59,0.00,,,-99.99,Meteorologica,2013-04-12 23:46:00,
2013-04-12 18:51:00,50.4,36.4,30.00,ESE,119,1.5,8.0,58,0.00,,,-99.99,Meteorologica,2013-04-12 23:51:00,
2013-04-12 18:56:00,50.2,36.4,30.00,WSW,238,2.4,8.5,58,0.00,,,-99.99,Meteorologica,2013-04-12 23:56:00,
2013-04-12 19:01:00,49.7,36.4,30.00,North,359,0.3,5.2,59,0.00,,,-99.99,Meteorologica,2013-04-13 00:01:00,
2013-04-12 19:06:00,49.4,36.4,30.00,NNW,337,1.8,5.7,60,0.00,,,-99.99,Meteorologica,2013-04-13 00:06:00,
2013-04-12 19:11:00,49.2,36.2,30.00,SW,235,4.4,8.1,60,0.00,,,-99.99,Meteorologica,2013-04-13 00:11:00,
2013-04-12 19:16:00,48.9,35.9,30.00,North,4,2.7,10.9,60,0.00,,,-99.99,Meteorologica,2013-04-13 00:16:00,
2013-04-12 19:21:00,48.9,36.0,30.00,North,1,1.2,7.1,60,0.00,,,-99.99,Meteorologica,2013-04-13 00:21:00,
2013-04-12 19:26:00,48.8,36.3,30.00,NNW,338,3.0,7.8,62,0.00,,,-99.99,Meteorologica,2013-04-13 00:26:00,
2013-04-12 19:31:00,48.5,36.3,30.00,NNW,341,1.2,6.8,62,0.00,,,-99.99,Meteorologica,2013-04-13 00:31:00,
2013-04-12 19:36:00,48.2,36.2,30.00,WSW,243,3.5,6.8,62,0.00,,,-99.99,Meteorologica,2013-04-13 00:36:00,
2013-04-12 19:41:00,48.2,36.2,30.01,North,358,4.7,9.2,62,0.00,,,-99.99,Meteorologica,2013-04-13 00:41:00,
2013-04-12 19:46:00,47.9,36.0,30.00,NNW,327,4.8,7.6,62,0.00,,,-99.99,Meteorologica,2013-04-13 00:46:00,
2013-04-12 19:51:00,47.8,36.1,30.00,NNE,18,0.3,3.1,63,0.00,,,-99.99,Meteorologica,2013-04-13 00:51:00,
2013-04-12 19:56:00,47.5,36.3,30.00,SE,128,1.5,7.5,64,0.00,,,-99.99,Meteorologica,2013-04-13 00:56:00,
2013-04-12 20:01:00,47.4,36.5,30.00,North,359,0.0,0.0,65,0.00,,,-99.99,Meteorologica,2013-04-13 01:01:00,
2013-04-12 20:06:00,47.1,36.6,30.00,NNW,328,0.0,0.0,66,0.00,,,-99.99,Meteorologica,2013-04-13 01:06:00,
2013-04-12 20:11:00,46.8,36.1,30.00,NNW,338,0.0,4.6,66,0.00,,,-99.99,Meteorologica,2013-04-13 01:11:00,
2013-04-12 20:16:00,46.6,36.5,30.00,NNW,338,0.0,0.0,67,0.00,,,-99.99,Meteorologica,2013-04-13 01:16:00,
2013-04-12 20:21:00,46.3,36.3,30.00,NNW,338,0.0,0.0,67,0.00,,,-99.99,Meteorologica,2013-04-13 01:21:00,
2013-04-12 20:26:00,46.1,36.2,30.00,NNW,338,0.0,0.0,67,0.00,,,-99.99,Meteorologica,2013-04-13 01:26:00,
2013-04-12 20:31:00,45.8,35.9,30.00,NNW,338,0.0,0.0,67,0.00,,,-99.99,Meteorologica,2013-04-13 01:31:00,
2013-04-12 20:36:00,45.7,36.0,29.99,NNW,338,0.0,0.0,68,0.00,,,-99.99,Meteorologica,2013-04-13 01:36:00,
2013-04-12 20:41:00,45.5,35.8,30.00,NNW,338,0.0,0.0,68,0.00,,,-99.99,Meteorologica,2013-04-13 01:41:00,
2013-04-12 20:46:00,45.4,35.9,29.99,NNW,338,0.0,0.0,69,0.00,,,-99.99,Meteorologica,2013-04-13 01:46:00,
2013-04-12 20:51:00,45.4,36.0,29.99,NNW,338,0.0,0.0,69,0.00,,,-99.99,Meteorologica,2013-04-13 01:51:00,
2013-04-12 20:57:00,45.2,36.1,30.00,NNW,338,0.0,0.0,70,0.00,,,-99.99,Meteorologica,2013-04-13 01:57:00,
2013-04-12 21:02:00,45.1,36.0,30.00,NNW,338,0.0,0.0,70,0.00,,,-99.99,Meteorologica,2013-04-13 02:02:00,
2013-04-12 21:07:00,44.8,35.9,30.00,NNW,338,0.0,0.0,70,0.00,,,-99.99,Meteorologica,2013-04-13 02:07:00,
2013-04-12 21:12:00,44.6,36.0,30.00,NNW,338,0.0,0.0,71,0.00,,,-99.99,Meteorologica,2013-04-13 02:12:00,
2013-04-12 21:17:00,44.5,36.2,30.00,NNW,338,0.0,0.0,72,0.00,,,-99.99,Meteorologica,2013-04-13 02:17:00,
2013-04-12 21:22:00,44.3,36.4,30.01,NNW,338,0.0,0.0,73,0.00,,,-99.99,Meteorologica,2013-04-13 02:22:00,
2013-04-12 21:27:00,44.2,36.4,30.01,NNW,338,0.0,0.0,73,0.00,,,-99.99,Meteorologica,2013-04-13 02:27:00,
2013-04-12 21:32:00,44.2,36.5,30.01,NNW,338,0.0,0.0,74,0.00,,,-99.99,Meteorologica,2013-04-13 02:32:00,
2013-04-12 21:37:00,44.0,36.6,30.01,NNW,338,0.0,0.0,74,0.00,,,-99.99,Meteorologica,2013-04-13 02:37:00,
2013-04-12 21:42:00,43.9,36.5,30.02,NNW,338,0.0,0.0,75,0.00,,,-99.99,Meteorologica,2013-04-13 02:42:00,
2013-04-12 21:47:00,43.8,36.6,30.01,NNW,338,0.0,0.0,75,0.00,,,-99.99,Meteorologica,2013-04-13 02:47:00,
2013-04-12 21:52:00,43.7,36.9,30.01,NNW,338,0.0,0.0,76,0.00,,,-99.99,Meteorologica,2013-04-13 02:52:00,
2013-04-12 21:57:00,43.6,37.0,30.01,NNW,338,0.0,0.0,77,0.00,,,-99.99,Meteorologica,2013-04-13 02:57:00,
2013-04-12 22:02:00,43.4,37.0,30.02,NNW,338,0.0,0.0,78,0.00,,,-99.99,Meteorologica,2013-04-13 03:02:00,
2013-04-12 22:07:00,43.0,36.5,30.02,NNW,338,0.0,0.0,77,0.00,,,-99.99,Meteorologica,2013-04-13 03:07:00,
2013-04-12 22:12:00,42.8,36.5,30.02,NNW,338,0.0,0.0,78,0.00,,,-99.99,Meteorologica,2013-04-13 03:12:00,
2013-04-12 22:17:00,42.4,36.3,30.03,NNW,338,0.0,0.0,78,0.00,,,-99.99,Meteorologica,2013-04-13 03:17:00,
2013-04-12 22:22:00,42.2,36.4,30.04,NNW,338,0.0,0.0,79,0.00,,,-99.99,Meteorologica,2013-04-13 03:22:00,
2013-04-12 22:27:00,41.9,36.1,30.04,NNW,338,0.0,0.0,79,0.00,,,-99.99,Meteorologica,2013-04-13 03:27:00,
2013-04-12 22:32:00,41.7,35.9,30.04,NNW,338,0.0,0.0,79,0.00,,,-99.99,Meteorologica,2013-04-13 03:32:00,
2013-04-12 22:37:00,41.7,35.9,30.04,NNW,338,0.0,0.0,79,0.00,,,-99.99,Meteorologica,2013-04-13 03:37:00,
2013-04-12 22:42:00,41.6,35.8,30.04,NNW,338,0.0,0.0,79,0.00,,,-99.99,Meteorologica,2013-04-13 03:42:00,
2013-04-12 22:48:00,41.4,35.9,30.04,NNW,338,0.0,0.0,80,0.00,,,-99.99,Meteorologica,2013-04-13 03:48:00,
2013-04-12 22:53:00,41.3,35.8,30.04,NNW,338,0.0,0.0,81,0.00,,,-99.99,Meteorologica,2013-04-13 03:53:00,
2013-04-12 22:58:00,41.1,35.8,30.05,NNW,338,0.0,0.0,81,0.00,,,-99.99,Meteorologica,2013-04-13 03:58:00,
2013-04-12 23:01:00,41.0,35.7,30.05,NNW,338,0.0,0.0,81,0.00,,,-99.99,Meteorologica,2013-04-13 04:01:00,
2013-04-12 23:03:00,40.9,35.6,30.05,NNW,338,0.0,0.0,81,0.00,,,-99.99,Meteorologica,2013-04-13 04:03:00,
2013-04-12 23:05:00,40.9,35.7,30.04,NNW,338,0.0,0.0,81,0.00,,,-99.99,Meteorologica,2013-04-13 04:05:00,
2013-04-12 23:10:00,40.7,35.6,30.04,NNW,338,0.0,0.0,82,0.00,,,-99.99,Meteorologica,2013-04-13 04:10:00,
2013-04-12 23:15:00,40.4,35.4,30.04,NNW,338,0.0,0.0,82,0.00,,,-99.99,Meteorologica,2013-04-13 04:15:00,
2013-04-12 23:18:00,40.2,35.3,30.04,NNW,338,0.0,0.0,82,0.00,,,-99.99,Meteorologica,2013-04-13 04:18:00,
2013-04-12 23:23:00,39.9,35.2,30.04,NNW,338,0.0,0.0,83,0.00,,,-99.99,Meteorologica,2013-04-13 04:23:00,
2013-04-12 23:28:00,39.7,35.1,30.04,NNW,338,0.0,0.0,83,0.00,,,-99.99,Meteorologica,2013-04-13 04:28:00,
2013-04-12 23:33:00,39.6,35.2,30.05,NNW,338,0.0,0.0,84,0.00,,,-99.99,Meteorologica,2013-04-13 04:33:00,
2013-04-12 23:38:00,39.4,35.1,30.05,NNW,338,0.0,0.0,84,0.00,,,-99.99,Meteorologica,2013-04-13 04:38:00,
2013-04-12 23:43:00,39.2,35.1,30.06,NNW,338,0.0,0.0,85,0.00,,,-99.99,Meteorologica,2013-04-13 04:43:00,
2013-04-12 23:48:00,38.9,34.9,30.05,NNW,338,0.0,0.0,85,0.00,,,-99.99,Meteorologica,2013-04-13 04:48:00,
2013-04-12 23:53:00,38.7,34.8,30.06,NNW,338,0.0,0.0,85,0.00,,,-99.99,Meteorologica,2013-04-13 04:53:00,
2013-04-12 23:58:00,38.4,34.7,30.05,NNW,338,0.0,0.0,86,0.00,,,-99.99,Meteorologica,2013-04-13 04:58:00,